Time;durP1;ratioP1;P1;durP2;ratioP2;P2;SDS_P1;SDS_P2;PMS_P1;PMS_P2;Temp;Humidity;BMP_temperature;BMP_pressure;BME280_temperature;BME280_humidity;BME280_pressure;Samples;Min_cycle;Max_cycle;Signal;HPM_P1;HPM_P2
2021/06/02 00:00:25;;;;;;;0.00;0.00;;;17.40;92.20;;;;;;5058787;28;20131;-57
2021/06/02 00:02:55;;;;;;;0.00;0.00;;;17.30;92.40;;;;;;5072036;28;20045;-57
2021/06/02 00:05:22;;;;;;;0.00;0.00;;;17.30;92.80;;;;;;5072216;28;20024;-57
2021/06/02 00:07:49;;;;;;;0.00;0.00;;;17.30;93.10;;;;;;5071207;28;20036;-58
2021/06/02 00:10:16;;;;;;;0.00;0.00;;;17.30;92.70;;;;;;5072368;28;20036;-57
2021/06/02 00:12:42;;;;;;;0.00;0.00;;;17.30;92.70;;;;;;5072264;28;20037;-57
2021/06/02 00:15:09;;;;;;;0.10;0.10;;;17.20;93.00;;;;;;5071607;28;20596;-57
2021/06/02 00:17:37;;;;;;;0.00;0.00;;;17.10;93.50;;;;;;5088148;27;20027;-57
2021/06/02 00:20:05;;;;;;;0.00;0.00;;;17.00;93.90;;;;;;5072459;28;20036;-57
2021/06/02 00:22:31;;;;;;;0.00;0.00;;;16.90;94.20;;;;;;5071476;28;20911;-57
2021/06/02 00:24:57;;;;;;;0.00;0.00;;;16.90;94.50;;;;;;5071843;28;20036;-58
2021/06/02 00:27:23;;;;;;;0.00;0.00;;;16.80;94.80;;;;;;5087826;27;20353;-58
2021/06/02 00:29:52;;;;;;;0.00;0.00;;;16.70;95.20;;;;;;5071000;28;20038;-57
2021/06/02 00:32:22;;;;;;;0.00;0.00;;;16.70;95.40;;;;;;5071415;28;20064;-57
2021/06/02 00:34:52;;;;;;;0.00;0.00;;;16.60;95.70;;;;;;5071853;28;20032;-57
2021/06/02 00:37:22;;;;;;;0.00;0.00;;;16.60;96.10;;;;;;5072227;28;20031;-57
2021/06/02 00:39:50;;;;;;;0.10;0.10;;;16.60;96.10;;;;;;5071835;28;20123;-57
2021/06/02 00:42:16;;;;;;;0.00;0.00;;;16.50;96.30;;;;;;5072017;28;20039;-57
2021/06/02 00:44:46;;;;;;;0.00;0.00;;;16.50;95.90;;;;;;5072439;28;20028;-57
2021/06/02 00:47:14;;;;;;;0.00;0.00;;;16.50;95.50;;;;;;5070792;28;20028;-57
2021/06/02 00:49:42;;;;;;;0.00;0.00;;;16.60;95.40;;;;;;5071329;28;20351;-57
2021/06/02 00:52:08;;;;;;;0.00;0.00;;;16.60;95.00;;;;;;5071122;28;20024;-57
2021/06/02 00:54:37;;;;;;;0.00;0.00;;;16.60;95.00;;;;;;5071306;28;20062;-57
2021/06/02 00:57:18;;;;;;;0.00;0.00;;;16.60;94.30;;;;;;5071243;28;20461;-57
2021/06/02 00:59:49;;;;;;;0.00;0.00;;;16.60;94.00;;;;;;5070690;28;20047;-57
2021/06/02 01:02:20;;;;;;;0.10;0.10;;;16.70;94.50;;;;;;5071508;28;20443;-57
2021/06/02 01:04:48;;;;;;;0.00;0.00;;;16.70;93.90;;;;;;5086961;28;20028;-57
2021/06/02 01:07:14;;;;;;;0.00;0.00;;;16.80;93.80;;;;;;5058013;28;20457;-57
2021/06/02 01:09:45;;;;;;;0.00;0.00;;;16.80;92.90;;;;;;5071114;28;20035;-57
2021/06/02 01:12:21;;;;;;;0.00;0.00;;;16.80;92.60;;;;;;5071201;28;20040;-57
2021/06/02 01:14:48;;;;;;;0.00;0.00;;;16.90;92.00;;;;;;5072005;28;20036;-57
2021/06/02 01:17:15;;;;;;;0.00;0.00;;;16.80;92.20;;;;;;5071849;28;20155;-57
2021/06/02 01:19:44;;;;;;;0.00;0.00;;;16.70;92.50;;;;;;5059606;28;21897;-57
2021/06/02 01:22:10;;;;;;;0.00;0.00;;;16.70;93.10;;;;;;5075169;28;20032;-57
2021/06/02 01:24:39;;;;;;;0.00;0.00;;;16.70;93.10;;;;;;5075210;28;20032;-57
2021/06/02 01:27:07;;;;;;;0.00;0.00;;;16.70;93.30;;;;;;5075791;28;20027;-57
2021/06/02 01:29:35;;;;;;;0.00;0.00;;;16.70;93.20;;;;;;5074680;28;20056;-57
2021/06/02 01:32:26;;;;;;;0.00;0.00;;;16.80;92.60;;;;;;5074669;28;20028;-57
2021/06/02 01:35:30;;;;;;;0.00;0.00;;;16.80;92.30;;;;;;5074029;28;20039;-57
2021/06/02 01:38:10;;;;;;;0.00;0.00;;;16.80;91.60;;;;;;5059773;28;20040;-58
2021/06/02 01:41:10;;;;;;;0.00;0.00;;;16.80;92.60;;;;;;5061749;28;20450;-58
2021/06/02 01:44:06;;;;;;;0.00;0.00;;;16.80;93.00;;;;;;5074945;28;20031;-58
2021/06/02 01:46:40;;;;;;;0.00;0.00;;;16.80;93.20;;;;;;5075078;28;20056;-58
2021/06/02 01:49:36;;;;;;;0.00;0.00;;;16.70;93.60;;;;;;5076907;28;20687;-63
2021/06/02 01:52:20;;;;;;;0.00;0.00;;;16.70;92.90;;;;;;5075147;28;20032;-57
2021/06/02 01:55:13;;;;;;;0.00;0.00;;;16.60;93.80;;;;;;5073417;28;20029;-58
2021/06/02 01:57:39;;;;;;;0.00;0.00;;;16.50;93.80;;;;;;5076358;28;20155;-57
2021/06/02 02:00:28;;;;;;;0.00;0.00;;;16.50;93.50;;;;;;5077505;28;20081;-58
2021/06/02 02:03:31;;;;;;;0.00;0.00;;;16.50;94.20;;;;;;5077412;28;20028;-57
2021/06/02 02:06:33;;;;;;;0.00;0.00;;;16.50;94.50;;;;;;5075893;28;20032;-57
2021/06/02 02:09:27;;;;;;;0.00;0.00;;;16.50;94.30;;;;;;5075205;28;20032;-57
2021/06/02 02:12:08;;;;;;;0.00;0.00;;;16.50;94.90;;;;;;5076551;28;20036;-57
2021/06/02 02:15:00;;;;;;;0.00;0.00;;;16.40;93.80;;;;;;5075132;28;20621;-57
2021/06/02 02:18:04;;;;;;;0.00;0.00;;;16.30;92.70;;;;;;5075984;28;20020;-57
2021/06/02 02:20:38;;;;;;;0.07;0.07;;;16.30;92.90;;;;;;5067162;28;20032;-57
2021/06/02 02:23:19;;;;;;;0.00;0.00;;;16.30;93.10;;;;;;5092394;27;20650;-58
2021/06/02 02:25:56;;;;;;;0.00;0.00;;;16.20;92.60;;;;;;5077333;28;20044;-57
2021/06/02 02:28:59;;;;;;;0.00;0.00;;;16.30;92.90;;;;;;5074320;28;20040;-57
2021/06/02 02:31:47;;;;;;;0.00;0.00;;;16.30;93.80;;;;;;5065649;28;20115;-57
2021/06/02 02:34:53;;;;;;;0.03;0.03;;;16.30;92.90;;;;;;5066289;28;20043;-57
2021/06/02 02:37:39;;;;;;;0.00;0.00;;;16.20;93.50;;;;;;5074661;28;20027;-57
2021/06/02 02:40:06;;;;;;;0.00;0.00;;;16.10;94.00;;;;;;5074841;28;20162;-57
2021/06/02 02:42:51;;;;;;;0.00;0.00;;;16.00;94.50;;;;;;5089578;27;20430;-58
2021/06/02 02:45:32;;;;;;;0.00;0.00;;;16.00;94.60;;;;;;5060626;28;20601;-57
2021/06/02 02:48:16;;;;;;;0.00;0.00;;;15.90;94.70;;;;;;5074751;28;20085;-57
2021/06/02 02:50:51;;;;;;;0.00;0.00;;;15.90;95.60;;;;;;5090873;27;20047;-57
2021/06/02 02:53:53;;;;;;;0.00;0.00;;;15.90;95.80;;;;;;5090664;27;20039;-57
2021/06/02 02:56:26;;;;;;;0.00;0.00;;;15.90;94.70;;;;;;5049210;28;20392;-57
2021/06/02 02:59:06;;;;;;;0.10;0.10;;;15.90;94.70;;;;;;5074210;28;20024;-56
2021/06/02 03:01:54;;;;;;;0.10;0.10;;;15.80;94.80;;;;;;5072510;28;20045;-57
2021/06/02 03:04:23;;;;;;;0.00;0.00;;;15.80;94.90;;;;;;5075511;28;20020;-57
2021/06/02 03:07:04;;;;;;;0.00;0.00;;;15.70;95.40;;;;;;5074383;28;20028;-57
2021/06/02 03:09:51;;;;;;;0.00;0.00;;;15.60;95.70;;;;;;5065310;28;20020;-57
2021/06/02 03:12:57;;;;;;;0.00;0.00;;;15.60;95.80;;;;;;5073927;28;20043;-57
2021/06/02 03:16:00;;;;;;;0.00;0.00;;;15.60;95.70;;;;;;5032015;28;20097;-57
2021/06/02 03:18:34;;;;;;;0.00;0.00;;;15.50;95.30;;;;;;5020772;28;20491;-59
2021/06/02 03:21:08;;;;;;;0.00;0.00;;;15.50;95.10;;;;;;5073392;28;20054;-57
2021/06/02 03:24:12;;;;;;;0.07;0.07;;;15.50;95.00;;;;;;5073832;28;20468;-57
2021/06/02 03:26:45;;;;;;;0.00;0.00;;;15.50;94.90;;;;;;5073885;28;20032;-57
2021/06/02 03:29:14;;;;;;;0.00;0.00;;;15.50;95.10;;;;;;5071842;28;20918;-58
2021/06/02 03:32:04;;;;;;;0.00;0.00;;;15.50;95.20;;;;;;5073107;28;20165;-58
2021/06/02 03:35:12;;;;;;;0.07;0.07;;;15.50;95.30;;;;;;5073184;28;20151;-57
2021/06/02 03:38:09;;;;;;;0.10;0.10;;;15.50;95.20;;;;;;5073763;28;20150;-58
2021/06/02 03:40:57;;;;;;;0.00;0.00;;;15.50;95.20;;;;;;5071778;28;20032;-57
2021/06/02 03:43:26;;;;;;;0.83;0.83;;;15.40;95.20;;;;;;5089691;27;20037;-58
2021/06/02 03:46:29;;;;;;;0.30;0.30;;;15.40;95.20;;;;;;5073052;28;20081;-58
2021/06/02 03:49:11;;;;;;;0.00;0.00;;;15.40;95.50;;;;;;5072991;28;20024;-58
2021/06/02 03:51:41;;;;;;;0.00;0.00;;;15.40;95.40;;;;;;5088130;27;20169;-57
2021/06/02 03:54:12;;;;;;;0.00;0.00;;;15.40;95.50;;;;;;5072635;28;20096;-57
2021/06/02 03:57:01;;;;;;;0.00;0.00;;;15.40;95.50;;;;;;5059418;28;20097;-57
2021/06/02 04:00:08;;;;;;;0.00;0.00;;;15.40;96.20;;;;;;5057592;28;20049;-56
2021/06/02 04:02:45;;;;;;;0.00;0.00;;;15.40;95.90;;;;;;4973668;28;20491;-58
2021/06/02 04:05:17;;;;;;;0.10;0.10;;;15.40;96.20;;;;;;4958658;28;20038;-58
2021/06/02 04:08:12;;;;;;;0.00;0.00;;;15.40;96.00;;;;;;4976038;28;20035;-57
2021/06/02 04:10:46;;;;;;;0.00;0.00;;;15.40;96.20;;;;;;4972218;28;20043;-57
2021/06/02 04:13:53;;;;;;;0.00;0.00;;;15.50;96.90;;;;;;4974352;28;20058;-57
2021/06/02 04:16:22;;;;;;;0.00;0.00;;;15.50;96.50;;;;;;4964194;28;20092;-58
2021/06/02 04:18:48;;;;;;;0.00;0.00;;;15.50;95.80;;;;;;4975977;28;20034;-57
2021/06/02 04:21:20;;;;;;;0.00;0.00;;;15.50;96.30;;;;;;4975026;28;20085;-57
2021/06/02 04:23:46;;;;;;;0.00;0.00;;;15.50;96.60;;;;;;4966371;28;20095;-57
2021/06/02 04:26:13;;;;;;;0.00;0.00;;;15.60;96.90;;;;;;4977102;28;20050;-58
2021/06/02 04:28:40;;;;;;;0.00;0.00;;;15.60;96.80;;;;;;4972836;28;22202;-58
2021/06/02 04:31:11;;;;;;;0.10;0.10;;;15.50;96.10;;;;;;4976812;28;20030;-58
2021/06/02 04:33:44;;;;;;;0.10;0.10;;;15.50;96.30;;;;;;5028268;28;20051;-57
2021/06/02 04:36:13;;;;;;;0.00;0.00;;;15.60;96.70;;;;;;5075606;28;20036;-58
2021/06/02 04:38:44;;;;;;;0.00;0.00;;;15.60;97.20;;;;;;5074721;28;20031;-57
2021/06/02 04:41:10;;;;;;;0.00;0.00;;;15.60;97.00;;;;;;5072685;28;20023;-57
2021/06/02 04:43:39;;;;;;;0.00;0.00;;;15.70;96.60;;;;;;5073367;28;20035;-58
2021/06/02 04:46:11;;;;;;;0.00;0.00;;;15.80;96.10;;;;;;5058932;28;20081;-57
2021/06/02 04:48:36;;;;;;;0.00;0.00;;;15.90;96.40;;;;;;5073382;28;20406;-57
2021/06/02 04:52:00;;;;;;;0.00;0.00;;;15.90;95.60;;;;;;5064342;28;20035;-58
2021/06/02 04:54:47;;;;;;;0.00;0.00;;;16.00;95.50;;;;;;5070480;28;20029;-57
2021/06/02 04:57:57;;;;;;;0.00;0.00;;;16.00;94.70;;;;;;5071620;28;20059;-58
2021/06/02 05:00:43;;;;;;;0.00;0.00;;;16.00;94.60;;;;;;5022426;28;20469;-57
2021/06/02 05:03:35;;;;;;;0.00;0.00;;;16.00;94.20;;;;;;5071241;28;20465;-57
2021/06/02 05:06:25;;;;;;;0.00;0.00;;;16.00;94.10;;;;;;5072734;28;20563;-57
2021/06/02 05:09:14;;;;;;;0.00;0.00;;;16.00;94.30;;;;;;5071309;28;20040;-58
2021/06/02 05:12:11;;;;;;;0.00;0.00;;;16.00;94.40;;;;;;5072157;28;20028;-58
2021/06/02 05:15:08;;;;;;;0.00;0.00;;;16.10;95.00;;;;;;5070567;28;20127;-57
2021/06/02 05:17:58;;;;;;;0.00;0.00;;;16.20;94.60;;;;;;5071036;28;20097;-58
2021/06/02 05:24:03;;;;;;;0.00;0.00;;;16.50;93.40;;;;;;5071597;28;20052;-58
2021/06/02 05:26:40;;;;;;;0.00;0.00;;;16.60;92.80;;;;;;5071296;28;20028;-58
2021/06/02 05:29:36;;;;;;;0.00;0.00;;;16.60;91.90;;;;;;5070324;28;20036;-58
2021/06/02 05:32:26;;;;;;;0.00;0.00;;;16.60;92.10;;;;;;5069163;28;20399;-58
2021/06/02 05:35:23;;;;;;;0.00;0.00;;;16.60;92.00;;;;;;5071708;28;20491;-58
2021/06/02 05:37:52;;;;;;;0.00;0.00;;;16.60;91.90;;;;;;5040765;28;20075;-58
2021/06/02 05:40:43;;;;;;;0.00;0.00;;;16.60;91.80;;;;;;5058208;28;20611;-58
2021/06/02 05:43:39;;;;;;;0.00;0.00;;;16.70;91.90;;;;;;5070588;28;20016;-58
2021/06/02 05:46:26;;;;;;;0.00;0.00;;;16.80;91.20;;;;;;5056832;28;20049;-59
2021/06/02 05:49:15;;;;;;;0.00;0.00;;;16.80;91.00;;;;;;5062160;28;20076;-58
2021/06/02 05:52:04;;;;;;;0.00;0.00;;;17.00;91.60;;;;;;5070950;28;20032;-58
2021/06/02 05:54:43;;;;;;;0.00;0.00;;;17.10;90.60;;;;;;5061514;28;20029;-58
2021/06/02 05:57:26;;;;;;;0.00;0.00;;;17.10;89.50;;;;;;5056962;28;20028;-57
2021/06/02 06:00:03;;;;;;;0.00;0.00;;;17.20;90.00;;;;;;5069958;28;20102;-57
2021/06/02 06:02:40;;;;;;;0.00;0.00;;;17.30;90.70;;;;;;5071926;28;20040;-57
2021/06/02 06:05:59;;;;;;;0.00;0.00;;;17.40;90.10;;;;;;5074101;28;20032;-58
2021/06/02 06:08:43;;;;;;;0.00;0.00;;;17.60;90.10;;;;;;5007188;28;20068;-57
2021/06/02 06:11:45;;;;;;;0.00;0.00;;;17.70;88.80;;;;;;5060029;28;20064;-57
2021/06/02 06:14:35;;;;;;;0.00;0.00;;;17.90;89.60;;;;;;5073669;28;20467;-57
2021/06/02 06:17:21;;;;;;;0.00;0.00;;;18.00;87.40;;;;;;5074722;28;20042;-57
2021/06/02 06:20:15;;;;;;;0.00;0.00;;;18.00;86.10;;;;;;5075670;28;20109;-57
2021/06/02 06:22:53;;;;;;;0.00;0.00;;;18.00;85.20;;;;;;5060568;28;20043;-57
2021/06/02 06:25:38;;;;;;;0.00;0.00;;;18.10;85.80;;;;;;5075247;28;20077;-58
2021/06/02 06:28:21;;;;;;;0.00;0.00;;;18.10;84.90;;;;;;5090567;27;20115;-57
2021/06/02 06:30:49;;;;;;;0.00;0.00;;;18.20;85.80;;;;;;5074624;28;20032;-57
2021/06/02 06:33:17;;;;;;;0.00;0.00;;;18.30;84.70;;;;;;5074222;28;20027;-57
2021/06/02 06:35:46;;;;;;;0.00;0.00;;;18.50;84.80;;;;;;5074221;28;20032;-58
2021/06/02 06:38:22;;;;;;;0.00;0.00;;;18.50;84.70;;;;;;5074817;28;20182;-57
2021/06/02 06:40:54;;;;;;;0.00;0.00;;;18.60;85.00;;;;;;5060035;28;20035;-57
2021/06/02 06:43:22;;;;;;;0.00;0.00;;;18.70;81.70;;;;;;5060093;28;20028;-57
2021/06/02 06:45:48;;;;;;;0.00;0.00;;;18.70;82.60;;;;;;5074776;28;20079;-58
2021/06/02 06:48:18;;;;;;;0.00;0.00;;;18.80;81.90;;;;;;5073407;28;20491;-57
2021/06/02 06:50:51;;;;;;;0.00;0.00;;;18.80;81.70;;;;;;5072979;28;20056;-57
2021/06/02 06:53:17;;;;;;;0.00;0.00;;;18.90;81.20;;;;;;5064839;28;20028;-58
2021/06/02 06:55:45;;;;;;;0.00;0.00;;;19.00;81.40;;;;;;5073638;28;20794;-57
2021/06/02 06:58:11;;;;;;;0.00;0.00;;;19.10;81.80;;;;;;5055337;28;20120;-58
2021/06/02 07:00:40;;;;;;;0.00;0.00;;;19.20;81.40;;;;;;5072298;28;20053;-57
2021/06/02 07:03:07;;;;;;;0.00;0.00;;;19.30;80.30;;;;;;5072386;28;20443;-57
2021/06/02 07:05:33;;;;;;;0.00;0.00;;;19.40;79.10;;;;;;5073550;28;20036;-57
2021/06/02 07:07:59;;;;;;;0.00;0.00;;;19.30;79.20;;;;;;5074488;28;20044;-58
2021/06/02 07:10:26;;;;;;;0.00;0.00;;;19.40;79.30;;;;;;5073249;28;20036;-58
2021/06/02 07:12:54;;;;;;;0.00;0.00;;;19.40;78.40;;;;;;5073599;28;20024;-57
2021/06/02 07:15:21;;;;;;;0.00;0.00;;;19.50;78.30;;;;;;5072697;28;20545;-57
2021/06/02 07:17:48;;;;;;;0.00;0.00;;;19.60;76.80;;;;;;5074025;28;20020;-58
2021/06/02 07:20:28;;;;;;;0.00;0.00;;;19.60;75.70;;;;;;5088688;27;20035;-58
2021/06/02 07:22:54;;;;;;;0.00;0.00;;;19.70;76.70;;;;;;5055253;28;20028;-58
2021/06/02 07:25:22;;;;;;;0.00;0.00;;;19.70;76.90;;;;;;5073943;28;20028;-57
2021/06/02 07:27:51;;;;;;;0.00;0.00;;;19.90;76.60;;;;;;5072521;28;20086;-58
2021/06/02 07:30:19;;;;;;;0.00;0.00;;;20.00;76.40;;;;;;5052959;28;20483;-57
2021/06/02 07:32:45;;;;;;;0.00;0.00;;;20.10;74.50;;;;;;5072758;28;20465;-57
2021/06/02 07:35:12;;;;;;;0.70;0.70;;;20.10;72.90;;;;;;5072456;28;20117;-58
2021/06/02 07:37:38;;;;;;;0.00;0.00;;;20.20;73.40;;;;;;5063752;28;21966;-57
2021/06/02 07:40:05;;;;;;;0.00;0.00;;;20.20;73.70;;;;;;5055191;28;20039;-57
2021/06/02 07:42:33;;;;;;;0.00;0.00;;;20.30;73.40;;;;;;5071031;28;20035;-58
2021/06/02 07:44:59;;;;;;;0.00;0.00;;;20.40;73.90;;;;;;5071766;28;20507;-58
2021/06/02 07:47:25;;;;;;;0.00;0.00;;;20.50;73.00;;;;;;5072518;28;20031;-57
2021/06/02 07:49:50;;;;;;;0.00;0.00;;;20.60;71.90;;;;;;5088665;27;20121;-57
2021/06/02 07:52:16;;;;;;;0.00;0.00;;;20.70;72.40;;;;;;5072355;28;20028;-58
2021/06/02 07:54:42;;;;;;;0.10;0.10;;;20.80;70.10;;;;;;5072263;28;20039;-58
2021/06/02 07:57:10;;;;;;;0.00;0.00;;;20.80;71.00;;;;;;5072772;28;20060;-57
2021/06/02 07:59:40;;;;;;;0.00;0.00;;;20.90;68.40;;;;;;5063386;28;20059;-58
2021/06/02 08:02:06;;;;;;;0.00;0.00;;;20.90;68.90;;;;;;5063450;28;20036;-57
2021/06/02 08:04:32;;;;;;;0.00;0.00;;;21.00;68.90;;;;;;5087512;27;20035;-58
2021/06/02 08:07:00;;;;;;;0.00;0.00;;;21.10;70.20;;;;;;5062808;28;20094;-60
2021/06/02 08:09:29;;;;;;;0.10;0.10;;;21.20;69.90;;;;;;5071388;28;20032;-58
2021/06/02 08:11:57;;;;;;;0.00;0.00;;;21.20;70.20;;;;;;5071821;28;20127;-58
2021/06/02 08:14:23;;;;;;;0.10;0.10;;;21.40;70.20;;;;;;5071404;28;20107;-58
2021/06/02 08:16:48;;;;;;;0.00;0.00;;;21.50;69.40;;;;;;5071726;28;20487;-58
2021/06/02 08:19:14;;;;;;;0.00;0.00;;;21.60;67.40;;;;;;5071681;28;20028;-57
2021/06/02 08:21:42;;;;;;;0.00;0.00;;;21.70;66.00;;;;;;5071590;28;20155;-58
2021/06/02 08:24:08;;;;;;;0.20;0.20;;;21.80;67.50;;;;;;5072061;28;20373;-58
2021/06/02 08:26:36;;;;;;;0.00;0.00;;;21.90;66.30;;;;;;5056274;28;20035;-58
2021/06/02 08:29:05;;;;;;;0.00;0.00;;;21.90;66.80;;;;;;5072135;28;20462;-58
2021/06/02 08:31:33;;;;;;;0.00;0.00;;;22.00;65.10;;;;;;5069007;28;20036;-58
2021/06/02 08:34:02;;;;;;;0.00;0.00;;;22.10;65.40;;;;;;5087641;27;20446;-58
2021/06/02 08:36:31;;;;;;;0.00;0.00;;;22.20;65.60;;;;;;5057899;28;20123;-58
2021/06/02 08:38:57;;;;;;;0.00;0.00;;;22.20;63.10;;;;;;5052559;28;20033;-58
2021/06/02 08:41:23;;;;;;;0.03;0.03;;;22.20;62.90;;;;;;5071788;28;20062;-58
2021/06/02 08:43:51;;;;;;;0.10;0.10;;;22.20;63.00;;;;;;5071681;28;20033;-58
2021/06/02 08:46:22;;;;;;;0.00;0.00;;;22.30;63.00;;;;;;5056626;28;20074;-58
2021/06/02 08:48:51;;;;;;;0.00;0.00;;;22.40;60.80;;;;;;5070770;28;20028;-58
2021/06/02 08:51:20;;;;;;;0.00;0.00;;;22.50;61.50;;;;;;5070214;28;21735;-58
2021/06/02 08:53:47;;;;;;;0.00;0.00;;;22.60;61.70;;;;;;5071134;28;20566;-57
2021/06/02 08:56:13;;;;;;;0.00;0.00;;;22.70;61.30;;;;;;5062370;28;20032;-58
2021/06/02 08:58:39;;;;;;;0.00;0.00;;;22.80;61.80;;;;;;5071336;28;20036;-58
2021/06/02 09:01:05;;;;;;;0.00;0.00;;;22.90;57.80;;;;;;5070357;28;20052;-58
2021/06/02 09:03:31;;;;;;;0.00;0.00;;;22.90;58.70;;;;;;5087915;28;20040;-58
2021/06/02 09:05:58;;;;;;;0.03;0.03;;;22.90;60.10;;;;;;5071799;28;20033;-58
2021/06/02 09:08:28;;;;;;;0.00;0.00;;;23.00;58.70;;;;;;5056588;28;20118;-57
2021/06/02 09:10:56;;;;;;;0.00;0.00;;;23.10;58.00;;;;;;5071114;28;20429;-58
2021/06/02 09:13:23;;;;;;;0.10;0.10;;;23.10;57.60;;;;;;5062259;28;20040;-58
2021/06/02 09:15:52;;;;;;;0.10;0.10;;;23.20;58.60;;;;;;5070796;28;20055;-58
2021/06/02 09:18:23;;;;;;;0.00;0.00;;;23.30;57.50;;;;;;5052811;28;20032;-58
2021/06/02 09:20:56;;;;;;;0.00;0.00;;;23.30;57.80;;;;;;5071434;28;20036;-58
2021/06/02 09:23:31;;;;;;;0.00;0.00;;;23.40;58.00;;;;;;5085920;28;20071;-57
2021/06/02 09:26:14;;;;;;;0.08;0.08;;;23.50;57.30;;;;;;5071229;28;20126;-58
2021/06/02 09:29:09;;;;;;;0.00;0.00;;;23.60;56.60;;;;;;5071080;28;20040;-57
2021/06/02 09:31:43;;;;;;;0.00;0.00;;;23.70;56.00;;;;;;5071298;28;20028;-58
2021/06/02 09:34:14;;;;;;;0.00;0.00;;;23.80;54.40;;;;;;5071206;28;20028;-58
2021/06/02 09:36:44;;;;;;;0.00;0.00;;;23.90;54.20;;;;;;5070947;28;20028;-58
2021/06/02 09:39:13;;;;;;;0.10;0.10;;;24.10;53.80;;;;;;5072674;28;20033;-58
2021/06/02 09:41:54;;;;;;;0.00;0.00;;;24.20;51.80;;;;;;5075523;28;20071;-57
2021/06/02 09:44:29;;;;;;;0.00;0.00;;;24.20;51.50;;;;;;5074274;28;20040;-58
2021/06/02 09:47:04;;;;;;;0.00;0.00;;;24.30;49.80;;;;;;5074112;28;20028;-57
2021/06/02 09:49:48;;;;;;;0.00;0.00;;;24.30;50.70;;;;;;5074829;28;20036;-57
2021/06/02 09:52:14;;;;;;;0.00;0.00;;;24.40;50.40;;;;;;5075186;28;20055;-58
2021/06/02 09:54:42;;;;;;;0.00;0.00;;;24.40;49.50;;;;;;5057024;28;20042;-57
2021/06/02 09:57:19;;;;;;;0.00;0.00;;;24.40;46.90;;;;;;5074826;28;20571;-58
2021/06/02 10:00:01;;;;;;;0.00;0.00;;;24.50;48.10;;;;;;5074451;28;20179;-57
2021/06/02 10:02:27;;;;;;;0.00;0.00;;;24.50;47.10;;;;;;5074136;28;20060;-58
2021/06/02 10:05:09;;;;;;;0.00;0.00;;;24.60;47.40;;;;;;5065828;28;20032;-57
2021/06/02 10:07:46;;;;;;;0.00;0.00;;;24.70;45.80;;;;;;5074814;28;20062;-58
2021/06/02 10:10:28;;;;;;;0.00;0.00;;;24.80;45.30;;;;;;5072949;28;20114;-57
2021/06/02 10:13:01;;;;;;;0.00;0.00;;;24.80;45.30;;;;;;5089832;27;20039;-58
2021/06/02 10:15:49;;;;;;;0.00;0.00;;;24.90;45.70;;;;;;5074566;28;20020;-58
2021/06/02 10:18:25;;;;;;;0.00;0.00;;;25.00;46.10;;;;;;5073610;28;20032;-58
2021/06/02 10:21:03;;;;;;;0.00;0.00;;;25.00;45.80;;;;;;5073371;28;20028;-58
2021/06/02 10:23:31;;;;;;;0.22;0.22;;;25.10;46.10;;;;;;5054107;28;20059;-58
2021/06/02 10:26:00;;;;;;;0.00;0.00;;;25.10;46.70;;;;;;5073559;28;20033;-58
2021/06/02 10:28:26;;;;;;;0.00;0.00;;;25.10;46.60;;;;;;5061751;28;20036;-58
2021/06/02 10:30:53;;;;;;;0.00;0.00;;;25.10;46.70;;;;;;5073908;28;20810;-58
2021/06/02 10:33:21;;;;;;;0.10;0.10;;;25.10;46.80;;;;;;5053563;28;20033;-58
2021/06/02 10:35:47;;;;;;;0.00;0.00;;;25.10;46.70;;;;;;5064871;28;20028;-58
2021/06/02 10:38:18;;;;;;;0.00;0.00;;;25.10;46.50;;;;;;5073691;28;20055;-59
2021/06/02 10:40:45;;;;;;;0.00;0.00;;;25.10;47.20;;;;;;5060205;28;20349;-58
2021/06/02 10:43:19;;;;;;;0.00;0.00;;;25.20;46.70;;;;;;5072413;28;20111;-58
2021/06/02 10:45:53;;;;;;;0.00;0.00;;;25.30;44.80;;;;;;5073931;28;20116;-57
2021/06/02 10:48:47;;;;;;;0.00;0.00;;;25.30;44.90;;;;;;5073656;28;20100;-58
2021/06/02 10:51:25;;;;;;;0.00;0.00;;;25.30;45.20;;;;;;5089154;27;20040;-58
2021/06/02 10:54:14;;;;;;;0.00;0.00;;;25.50;44.50;;;;;;5072845;28;20032;-58
2021/06/02 10:56:59;;;;;;;0.00;0.00;;;25.50;45.20;;;;;;5073187;28;20166;-58
2021/06/02 10:59:36;;;;;;;0.00;0.00;;;25.50;44.50;;;;;;5073644;28;20048;-57
2021/06/02 11:02:11;;;;;;;0.00;0.00;;;25.70;43.70;;;;;;5073197;28;20032;-58
2021/06/02 11:04:41;;;;;;;0.00;0.00;;;25.70;44.00;;;;;;5073062;28;20032;-58
2021/06/02 11:07:19;;;;;;;0.00;0.00;;;25.70;45.30;;;;;;5073347;28;20124;-58
2021/06/02 11:10:09;;;;;;;0.00;0.00;;;26.00;44.40;;;;;;5072776;28;20468;-58
2021/06/02 11:12:50;;;;;;;0.00;0.00;;;26.00;44.60;;;;;;5057757;28;20040;-57
2021/06/02 11:15:34;;;;;;;0.00;0.00;;;26.10;43.90;;;;;;5073375;28;20028;-58
2021/06/02 11:18:11;;;;;;;0.00;0.00;;;26.20;44.00;;;;;;5073412;28;20441;-58
2021/06/02 11:20:41;;;;;;;0.00;0.00;;;26.30;44.30;;;;;;5072658;28;20020;-58
2021/06/02 11:23:10;;;;;;;0.00;0.00;;;26.30;43.90;;;;;;5072408;28;20035;-58
2021/06/02 11:25:38;;;;;;;0.00;0.00;;;26.40;44.60;;;;;;5072308;28;20028;-58
2021/06/02 11:28:06;;;;;;;0.00;0.00;;;26.50;43.60;;;;;;5063763;28;20032;-58
2021/06/02 11:30:32;;;;;;;0.00;0.00;;;26.80;43.50;;;;;;5072360;28;20042;-58
2021/06/02 11:33:12;;;;;;;0.00;0.00;;;27.10;43.10;;;;;;5071910;28;20024;-58
2021/06/02 11:36:06;;;;;;;0.00;0.00;;;27.60;42.20;;;;;;5072778;28;21940;-58
2021/06/02 11:38:33;;;;;;;0.00;0.00;;;28.40;39.90;;;;;;5087980;27;21795;-58
2021/06/02 11:40:59;;;;;;;0.00;0.00;;;29.40;39.50;;;;;;5054933;28;20162;-59
2021/06/02 11:43:25;;;;;;;0.00;0.00;;;30.40;38.00;;;;;;5073048;28;20471;-58
2021/06/02 11:45:52;;;;;;;0.00;0.00;;;31.10;36.40;;;;;;5088207;27;20351;-59
2021/06/02 11:48:22;;;;;;;0.00;0.00;;;31.60;36.20;;;;;;5072328;28;20039;-58
2021/06/02 11:50:50;;;;;;;0.00;0.00;;;32.90;35.00;;;;;;5072591;28;20467;-59
2021/06/02 11:53:16;;;;;;;0.00;0.00;;;32.60;34.20;;;;;;5058839;28;20093;-59
2021/06/02 11:55:44;;;;;;;0.00;0.00;;;32.80;34.30;;;;;;5072367;28;20036;-58
2021/06/02 11:58:10;;;;;;;0.00;0.00;;;33.50;33.80;;;;;;5058726;28;20086;-58
2021/06/02 12:00:36;;;;;;;0.00;0.00;;;33.60;31.30;;;;;;5071905;28;20064;-59
2021/06/02 12:03:12;;;;;;;0.00;0.00;;;33.50;32.50;;;;;;5071157;28;20103;-59
2021/06/02 12:05:43;;;;;;;0.00;0.00;;;34.10;32.50;;;;;;5071621;28;20060;-59
2021/06/02 12:08:12;;;;;;;0.00;0.00;;;34.40;31.20;;;;;;5071926;28;20032;-59
2021/06/02 12:10:49;;;;;;;0.00;0.00;;;34.30;32.10;;;;;;5058376;28;20028;-58
2021/06/02 12:13:20;;;;;;;0.00;0.00;;;35.30;31.20;;;;;;5059465;28;20036;-59
2021/06/02 12:15:52;;;;;;;0.00;0.00;;;36.10;31.50;;;;;;5071471;28;20035;-59
2021/06/02 12:18:54;;;;;;;;;;;36.00;31.20;;;;;;5063079;28;20411;-59
2021/06/02 12:21:22;;;;;;;0.00;0.00;;;35.60;31.10;;;;;;5055049;28;19916;-58
2021/06/02 12:23:55;;;;;;;0.00;0.00;;;35.50;30.50;;;;;;5056246;28;20425;-58
2021/06/02 12:26:35;;;;;;;0.00;0.00;;;35.10;31.00;;;;;;5070657;28;20062;-59
2021/06/02 12:29:10;;;;;;;0.00;0.00;;;35.90;31.70;;;;;;5072194;28;20027;-59
2021/06/02 12:31:45;;;;;;;0.00;0.00;;;36.00;30.00;;;;;;5072109;28;20474;-59
2021/06/02 12:34:25;;;;;;;0.00;0.00;;;35.90;30.50;;;;;;5072362;28;20036;-59
2021/06/02 12:36:55;;;;;;;0.00;0.00;;;36.10;30.50;;;;;;5071402;28;20043;-59
2021/06/02 12:39:29;;;;;;;0.00;0.00;;;35.80;30.60;;;;;;5071714;28;20028;-59
2021/06/02 12:41:56;;;;;;;0.00;0.00;;;35.40;31.50;;;;;;5071227;28;20430;-59
2021/06/02 12:44:31;;;;;;;0.00;0.00;;;35.60;30.40;;;;;;5071067;28;20020;-59
2021/06/02 12:47:14;;;;;;;0.00;0.00;;;36.40;31.00;;;;;;5071153;28;20101;-59
2021/06/02 12:49:43;;;;;;;0.00;0.00;;;36.20;29.90;;;;;;5071367;28;20045;-59
2021/06/02 12:52:10;;;;;;;0.00;0.00;;;36.30;30.40;;;;;;5070491;28;20017;-59
2021/06/02 12:54:37;;;;;;;0.00;0.00;;;36.70;30.70;;;;;;5071572;28;20029;-59
2021/06/02 12:57:03;;;;;;;0.00;0.00;;;36.50;30.30;;;;;;5069894;28;20042;-60
2021/06/02 12:59:31;;;;;;;0.00;0.00;;;35.90;30.00;;;;;;5070713;28;20052;-59
2021/06/02 13:02:03;;;;;;;0.00;0.00;;;37.00;30.00;;;;;;5070480;28;20079;-59
2021/06/02 13:04:33;;;;;;;0.00;0.00;;;37.50;28.70;;;;;;5053656;28;20165;-59
2021/06/02 13:06:59;;;;;;;0.00;0.00;;;37.60;29.20;;;;;;5052567;28;20132;-59
2021/06/02 13:09:26;;;;;;;0.00;0.00;;;37.90;29.10;;;;;;5061814;28;20543;-58
2021/06/02 13:11:57;;;;;;;0.00;0.00;;;37.40;28.90;;;;;;5070584;28;20368;-59
2021/06/02 13:14:35;;;;;;;0.00;0.00;;;37.40;29.60;;;;;;5074566;28;20066;-59
2021/06/02 13:17:01;;;;;;;0.00;0.00;;;38.10;29.80;;;;;;5074925;28;20334;-59
2021/06/02 13:19:45;;;;;;;0.00;0.00;;;39.20;28.70;;;;;;5075028;28;20058;-60
2021/06/02 13:22:18;;;;;;;0.00;0.00;;;38.60;29.00;;;;;;5074690;28;20074;-59
2021/06/02 13:24:46;;;;;;;0.00;0.00;;;38.10;28.90;;;;;;5075666;28;20024;-59
2021/06/02 13:27:18;;;;;;;0.00;0.00;;;37.70;28.30;;;;;;5065649;28;20032;-59
2021/06/02 13:30:03;;;;;;;0.00;0.00;;;37.70;28.80;;;;;;5074799;28;20024;-59
2021/06/02 13:32:29;;;;;;;0.00;0.00;;;38.30;29.50;;;;;;5060930;28;20044;-59
2021/06/02 13:35:01;;;;;;;0.00;0.00;;;38.40;27.50;;;;;;5074511;28;20036;-59